Terminal Aerodrome Forecast
Issued by NWS Wilmington, OH

Current Version | Previous Version | Text Only | Print | Product List | Glossary On
Versions: 1 2 3 4 5 6 7 8 9 10 11 12 13 14 15 16 17 18 19 20 21
000 FTUS41 KILN 291700 TAFILN TAF KILN 291731Z 2918/3018 23016G25KT P6SM BKN040 FM292000 24016G26KT P6SM VCSH BKN022 OVC040 FM292200 26017G27KT P6SM OVC009 FM300100 29015G23KT P6SM OVC012 FM301000 31014G20KT P6SM OVC022 FM301500 33012G20KT P6SM SCT025=

USA.gov is the U.S. government's official web portal to all federal, state and local government web resources and services.